Oakville, California
Current Conditions -  °F | °C
As of 12:54 PM on Thursday 20 Nov 2014 (Local Time) from KAPC Reporting Station
Moderate Rain Moderate Rain  
Wind Chill: 52°   Ceiling: 6000
Heat Index: 52°   Visibility: 3mi
Dew Point: 51°   Wind: 14mph
Humidity: 97%   Direction: 100°E
Pressure: 30.03"   Gusts: NA
Location:  38.44°N, 122.4°W
Report Text: KAPC 202054Z AUTO 10012KT 3SM RA BR SCT012 OVC060 11/11 A3003 RMK AO2 PRESFR SLP160 P0007 60014 T01110106 57017
Loading
Personal Weather Stations






























Interactive Weather Map New forecast layout! Learn more

10-Day Weather Forecast

Advertisements
Track Severe Weather on mobile